sensor_id;sensor_type;location;lat;lon;timestamp;P1;durP1;ratioP1;P2;durP2;ratioP2
815;SDS011;25928;51.062;13.752;2022-10-13T00:01:13;12.10;;;8.53;;
815;SDS011;25928;51.062;13.752;2022-10-13T00:03:40;12.57;;;9.43;;
815;SDS011;25928;51.062;13.752;2022-10-13T00:06:07;12.47;;;9.30;;
815;SDS011;25928;51.062;13.752;2022-10-13T00:08:34;11.43;;;8.67;;
815;SDS011;25928;51.062;13.752;2022-10-13T00:11:00;17.07;;;9.57;;
815;SDS011;25928;51.062;13.752;2022-10-13T00:13:32;11.80;;;8.57;;
815;SDS011;25928;51.062;13.752;2022-10-13T00:16:00;12.40;;;9.03;;
815;SDS011;25928;51.062;13.752;2022-10-13T00:18:26;14.10;;;9.53;;
815;SDS011;25928;51.062;13.752;2022-10-13T00:20:52;15.10;;;9.17;;
815;SDS011;25928;51.062;13.752;2022-10-13T00:23:17;13.30;;;9.03;;
815;SDS011;25928;51.062;13.752;2022-10-13T00:25:43;14.53;;;9.10;;
815;SDS011;25928;51.062;13.752;2022-10-13T00:28:12;16.47;;;9.90;;
815;SDS011;25928;51.062;13.752;2022-10-13T00:30:39;12.10;;;9.57;;
815;SDS011;25928;51.062;13.752;2022-10-13T00:33:06;13.77;;;9.03;;
815;SDS011;25928;51.062;13.752;2022-10-13T00:35:32;12.83;;;8.93;;
815;SDS011;25928;51.062;13.752;2022-10-13T00:37:58;10.30;;;8.90;;
815;SDS011;25928;51.062;13.752;2022-10-13T00:40:24;14.43;;;10.30;;
815;SDS011;25928;51.062;13.752;2022-10-13T00:42:49;14.40;;;9.17;;
815;SDS011;25928;51.062;13.752;2022-10-13T00:45:19;11.40;;;8.47;;
815;SDS011;25928;51.062;13.752;2022-10-13T00:47:47;13.97;;;9.53;;
815;SDS011;25928;51.062;13.752;2022-10-13T00:50:18;10.87;;;8.10;;
815;SDS011;25928;51.062;13.752;2022-10-13T00:52:47;9.60;;;8.60;;
815;SDS011;25928;51.062;13.752;2022-10-13T00:55:16;13.63;;;8.67;;
815;SDS011;25928;51.062;13.752;2022-10-13T00:57:44;11.90;;;9.90;;
815;SDS011;25928;51.062;13.752;2022-10-13T01:00:12;16.80;;;8.60;;
815;SDS011;25928;51.062;13.752;2022-10-13T01:02:38;13.67;;;9.50;;
815;SDS011;25928;51.062;13.752;2022-10-13T01:05:04;12.60;;;8.43;;
815;SDS011;25928;51.062;13.752;2022-10-13T01:07:31;12.50;;;8.93;;
815;SDS011;25928;51.062;13.752;2022-10-13T01:09:58;12.87;;;8.50;;
815;SDS011;25928;51.062;13.752;2022-10-13T01:12:42;13.60;;;9.30;;
815;SDS011;25928;51.062;13.752;2022-10-13T01:23:31;11.07;;;9.37;;
815;SDS011;25928;51.062;13.752;2022-10-13T01:34:32;14.20;;;10.10;;
815;SDS011;25928;51.062;13.752;2022-10-13T01:37:18;11.37;;;7.80;;
815;SDS011;25928;51.062;13.752;2022-10-13T01:40:33;15.03;;;8.67;;
815;SDS011;25928;51.062;13.752;2022-10-13T01:45:07;12.23;;;8.50;;
815;SDS011;25928;51.062;13.752;2022-10-13T01:47:36;12.53;;;8.53;;
815;SDS011;25928;51.062;13.752;2022-10-13T01:50:03;11.17;;;9.60;;
815;SDS011;25928;51.062;13.752;2022-10-13T01:52:32;12.03;;;7.60;;
815;SDS011;25928;51.062;13.752;2022-10-13T01:55:05;12.60;;;8.20;;
815;SDS011;25928;51.062;13.752;2022-10-13T01:57:33;20.00;;;8.83;;
815;SDS011;25928;51.062;13.752;2022-10-13T02:00:08;12.03;;;9.03;;
815;SDS011;25928;51.062;13.752;2022-10-13T02:02:42;13.87;;;8.80;;
815;SDS011;25928;51.062;13.752;2022-10-13T02:05:31;11.33;;;8.83;;
815;SDS011;25928;51.062;13.752;2022-10-13T02:10:57;15.37;;;9.40;;
815;SDS011;25928;51.062;13.752;2022-10-13T02:13:42;14.10;;;9.20;;
815;SDS011;25928;51.062;13.752;2022-10-13T02:16:16;11.60;;;9.17;;
815;SDS011;25928;51.062;13.752;2022-10-13T02:18:45;10.43;;;8.67;;
815;SDS011;25928;51.062;13.752;2022-10-13T02:21:11;12.30;;;8.57;;
815;SDS011;25928;51.062;13.752;2022-10-13T02:23:37;10.70;;;8.77;;
815;SDS011;25928;51.062;13.752;2022-10-13T02:26:02;12.80;;;8.30;;
815;SDS011;25928;51.062;13.752;2022-10-13T02:28:29;12.03;;;10.00;;
815;SDS011;25928;51.062;13.752;2022-10-13T02:30:55;15.23;;;10.20;;
815;SDS011;25928;51.062;13.752;2022-10-13T02:33:20;15.30;;;10.07;;
815;SDS011;25928;51.062;13.752;2022-10-13T02:35:46;12.77;;;8.93;;
815;SDS011;25928;51.062;13.752;2022-10-13T02:38:11;11.33;;;8.93;;
815;SDS011;25928;51.062;13.752;2022-10-13T02:40:37;14.30;;;9.90;;
815;SDS011;25928;51.062;13.752;2022-10-13T02:43:03;14.57;;;9.87;;
815;SDS011;25928;51.062;13.752;2022-10-13T02:45:28;12.13;;;9.03;;
815;SDS011;25928;51.062;13.752;2022-10-13T02:47:54;10.40;;;9.30;;
815;SDS011;25928;51.062;13.752;2022-10-13T02:50:20;12.23;;;9.97;;
815;SDS011;25928;51.062;13.752;2022-10-13T02:52:45;12.00;;;9.53;;
815;SDS011;25928;51.062;13.752;2022-10-13T02:55:11;15.23;;;9.57;;
815;SDS011;25928;51.062;13.752;2022-10-13T02:57:37;16.33;;;9.30;;
815;SDS011;25928;51.062;13.752;2022-10-13T03:00:03;15.40;;;8.77;;
815;SDS011;25928;51.062;13.752;2022-10-13T03:02:31;9.63;;;8.57;;
815;SDS011;25928;51.062;13.752;2022-10-13T03:04:56;12.33;;;8.47;;
815;SDS011;25928;51.062;13.752;2022-10-13T03:07:22;11.37;;;8.97;;
815;SDS011;25928;51.062;13.752;2022-10-13T03:09:48;13.00;;;9.27;;
815;SDS011;25928;51.062;13.752;2022-10-13T03:12:13;12.10;;;8.80;;
815;SDS011;25928;51.062;13.752;2022-10-13T03:14:39;13.97;;;9.23;;
815;SDS011;25928;51.062;13.752;2022-10-13T03:17:04;16.00;;;9.70;;
815;SDS011;25928;51.062;13.752;2022-10-13T03:19:30;12.80;;;10.10;;
815;SDS011;25928;51.062;13.752;2022-10-13T03:21:56;16.20;;;9.73;;
815;SDS011;25928;51.062;13.752;2022-10-13T03:24:21;14.13;;;10.40;;
815;SDS011;25928;51.062;13.752;2022-10-13T03:26:47;10.67;;;9.53;;
815;SDS011;25928;51.062;13.752;2022-10-13T03:29:13;13.03;;;9.80;;
815;SDS011;25928;51.062;13.752;2022-10-13T03:31:40;15.13;;;9.43;;
815;SDS011;25928;51.062;13.752;2022-10-13T03:34:07;13.53;;;9.73;;
815;SDS011;25928;51.062;13.752;2022-10-13T03:36:34;12.40;;;10.20;;
815;SDS011;25928;51.062;13.752;2022-10-13T03:39:00;13.10;;;8.90;;
815;SDS011;25928;51.062;13.752;2022-10-13T03:41:25;12.87;;;10.43;;
815;SDS011;25928;51.062;13.752;2022-10-13T03:43:51;18.90;;;11.20;;
815;SDS011;25928;51.062;13.752;2022-10-13T03:46:17;14.60;;;9.60;;
815;SDS011;25928;51.062;13.752;2022-10-13T03:48:43;14.87;;;9.83;;
815;SDS011;25928;51.062;13.752;2022-10-13T03:51:15;15.77;;;9.83;;
815;SDS011;25928;51.062;13.752;2022-10-13T03:53:42;14.80;;;10.33;;
815;SDS011;25928;51.062;13.752;2022-10-13T03:56:09;11.33;;;9.37;;
815;SDS011;25928;51.062;13.752;2022-10-13T03:58:38;19.57;;;9.77;;
815;SDS011;25928;51.062;13.752;2022-10-13T04:01:04;12.87;;;10.13;;
815;SDS011;25928;51.062;13.752;2022-10-13T04:03:29;17.43;;;9.23;;
815;SDS011;25928;51.062;13.752;2022-10-13T04:06:00;13.67;;;10.63;;
815;SDS011;25928;51.062;13.752;2022-10-13T04:08:27;15.67;;;11.20;;
815;SDS011;25928;51.062;13.752;2022-10-13T04:11:10;15.03;;;10.00;;
815;SDS011;25928;51.062;13.752;2022-10-13T04:13:36;14.43;;;9.97;;
815;SDS011;25928;51.062;13.752;2022-10-13T04:16:02;11.10;;;9.50;;
815;SDS011;25928;51.062;13.752;2022-10-13T04:18:49;13.83;;;9.13;;
815;SDS011;25928;51.062;13.752;2022-10-13T04:21:18;15.90;;;10.00;;
815;SDS011;25928;51.062;13.752;2022-10-13T04:23:44;15.90;;;9.80;;
815;SDS011;25928;51.062;13.752;2022-10-13T04:26:16;13.83;;;9.80;;
815;SDS011;25928;51.062;13.752;2022-10-13T04:28:44;12.43;;;9.80;;
815;SDS011;25928;51.062;13.752;2022-10-13T04:31:11;14.67;;;9.40;;
815;SDS011;25928;51.062;13.752;2022-10-13T04:33:36;14.30;;;8.80;;
815;SDS011;25928;51.062;13.752;2022-10-13T04:36:03;12.93;;;9.83;;
815;SDS011;25928;51.062;13.752;2022-10-13T04:38:30;11.90;;;9.50;;
815;SDS011;25928;51.062;13.752;2022-10-13T04:40:56;11.80;;;9.30;;
815;SDS011;25928;51.062;13.752;2022-10-13T04:43:21;12.10;;;10.30;;
815;SDS011;25928;51.062;13.752;2022-10-13T04:45:47;13.47;;;9.50;;
815;SDS011;25928;51.062;13.752;2022-10-13T04:48:12;14.07;;;11.30;;
815;SDS011;25928;51.062;13.752;2022-10-13T04:50:38;11.63;;;9.30;;
815;SDS011;25928;51.062;13.752;2022-10-13T04:53:04;16.20;;;9.63;;
815;SDS011;25928;51.062;13.752;2022-10-13T04:55:30;16.70;;;10.90;;
815;SDS011;25928;51.062;13.752;2022-10-13T04:57:58;13.77;;;10.30;;
815;SDS011;25928;51.062;13.752;2022-10-13T05:00:24;18.17;;;10.40;;
815;SDS011;25928;51.062;13.752;2022-10-13T05:02:49;14.67;;;9.43;;
815;SDS011;25928;51.062;13.752;2022-10-13T05:05:15;12.93;;;10.17;;
815;SDS011;25928;51.062;13.752;2022-10-13T05:07:41;14.80;;;11.30;;
815;SDS011;25928;51.062;13.752;2022-10-13T05:10:06;12.23;;;9.70;;
815;SDS011;25928;51.062;13.752;2022-10-13T05:12:32;15.47;;;10.53;;
815;SDS011;25928;51.062;13.752;2022-10-13T05:14:59;17.10;;;9.43;;
815;SDS011;25928;51.062;13.752;2022-10-13T05:17:24;13.70;;;10.73;;
815;SDS011;25928;51.062;13.752;2022-10-13T05:19:50;13.37;;;10.53;;
815;SDS011;25928;51.062;13.752;2022-10-13T05:22:16;14.00;;;11.03;;
815;SDS011;25928;51.062;13.752;2022-10-13T05:24:42;16.17;;;10.40;;
815;SDS011;25928;51.062;13.752;2022-10-13T05:27:09;19.43;;;10.63;;
815;SDS011;25928;51.062;13.752;2022-10-13T05:29:36;13.57;;;10.50;;
815;SDS011;25928;51.062;13.752;2022-10-13T05:32:02;18.50;;;10.67;;
815;SDS011;25928;51.062;13.752;2022-10-13T05:34:28;14.77;;;11.63;;
815;SDS011;25928;51.062;13.752;2022-10-13T05:36:54;16.90;;;12.00;;
815;SDS011;25928;51.062;13.752;2022-10-13T05:39:19;25.93;;;11.87;;
815;SDS011;25928;51.062;13.752;2022-10-13T05:41:45;27.30;;;10.87;;
815;SDS011;25928;51.062;13.752;2022-10-13T05:44:10;18.33;;;11.00;;
815;SDS011;25928;51.062;13.752;2022-10-13T05:46:36;19.37;;;11.50;;
815;SDS011;25928;51.062;13.752;2022-10-13T05:49:02;13.50;;;10.90;;
815;SDS011;25928;51.062;13.752;2022-10-13T05:51:37;13.50;;;10.77;;
815;SDS011;25928;51.062;13.752;2022-10-13T05:56:37;15.67;;;11.20;;
815;SDS011;25928;51.062;13.752;2022-10-13T05:59:08;14.90;;;10.70;;
815;SDS011;25928;51.062;13.752;2022-10-13T06:01:38;19.87;;;10.43;;
815;SDS011;25928;51.062;13.752;2022-10-13T06:04:07;12.73;;;9.63;;
815;SDS011;25928;51.062;13.752;2022-10-13T06:06:36;19.43;;;10.60;;
815;SDS011;25928;51.062;13.752;2022-10-13T06:09:01;15.17;;;11.40;;
815;SDS011;25928;51.062;13.752;2022-10-13T06:11:27;17.20;;;11.10;;
815;SDS011;25928;51.062;13.752;2022-10-13T06:13:53;16.30;;;11.97;;
815;SDS011;25928;51.062;13.752;2022-10-13T06:16:18;14.30;;;11.10;;
815;SDS011;25928;51.062;13.752;2022-10-13T06:18:44;13.83;;;10.73;;
815;SDS011;25928;51.062;13.752;2022-10-13T06:21:09;18.00;;;12.53;;
815;SDS011;25928;51.062;13.752;2022-10-13T06:23:35;16.07;;;11.07;;
815;SDS011;25928;51.062;13.752;2022-10-13T06:26:00;15.33;;;11.27;;
815;SDS011;25928;51.062;13.752;2022-10-13T06:28:26;15.43;;;11.37;;
815;SDS011;25928;51.062;13.752;2022-10-13T06:30:52;21.80;;;11.47;;
815;SDS011;25928;51.062;13.752;2022-10-13T06:33:20;15.13;;;10.70;;
815;SDS011;25928;51.062;13.752;2022-10-13T06:35:46;15.83;;;11.50;;
815;SDS011;25928;51.062;13.752;2022-10-13T06:38:11;11.63;;;10.43;;
815;SDS011;25928;51.062;13.752;2022-10-13T06:40:37;16.10;;;11.87;;
815;SDS011;25928;51.062;13.752;2022-10-13T06:43:03;13.73;;;10.90;;
815;SDS011;25928;51.062;13.752;2022-10-13T06:45:28;17.97;;;12.77;;
815;SDS011;25928;51.062;13.752;2022-10-13T06:47:54;16.10;;;11.00;;
815;SDS011;25928;51.062;13.752;2022-10-13T06:50:20;15.80;;;11.30;;
815;SDS011;25928;51.062;13.752;2022-10-13T06:52:46;17.17;;;12.10;;
815;SDS011;25928;51.062;13.752;2022-10-13T06:55:12;17.67;;;11.57;;
815;SDS011;25928;51.062;13.752;2022-10-13T06:57:38;15.90;;;11.87;;
815;SDS011;25928;51.062;13.752;2022-10-13T07:00:04;14.20;;;11.10;;
815;SDS011;25928;51.062;13.752;2022-10-13T07:02:30;16.63;;;10.53;;
815;SDS011;25928;51.062;13.752;2022-10-13T07:04:56;14.63;;;10.70;;
815;SDS011;25928;51.062;13.752;2022-10-13T07:07:22;19.20;;;11.83;;
815;SDS011;25928;51.062;13.752;2022-10-13T07:09:47;17.17;;;11.60;;
815;SDS011;25928;51.062;13.752;2022-10-13T07:12:13;15.10;;;10.93;;
815;SDS011;25928;51.062;13.752;2022-10-13T07:14:39;12.77;;;11.17;;
815;SDS011;25928;51.062;13.752;2022-10-13T07:17:04;14.53;;;10.90;;
815;SDS011;25928;51.062;13.752;2022-10-13T07:19:30;14.47;;;11.03;;
815;SDS011;25928;51.062;13.752;2022-10-13T07:21:56;16.50;;;11.20;;
815;SDS011;25928;51.062;13.752;2022-10-13T07:24:21;13.37;;;10.73;;
815;SDS011;25928;51.062;13.752;2022-10-13T07:26:47;16.60;;;10.97;;
815;SDS011;25928;51.062;13.752;2022-10-13T07:29:13;18.07;;;11.10;;
815;SDS011;25928;51.062;13.752;2022-10-13T07:31:41;18.90;;;12.10;;
815;SDS011;25928;51.062;13.752;2022-10-13T07:34:08;14.63;;;11.57;;
815;SDS011;25928;51.062;13.752;2022-10-13T07:36:34;14.13;;;10.53;;
815;SDS011;25928;51.062;13.752;2022-10-13T07:39:00;16.47;;;11.33;;
815;SDS011;25928;51.062;13.752;2022-10-13T07:41:27;14.50;;;11.03;;
815;SDS011;25928;51.062;13.752;2022-10-13T07:43:56;15.20;;;11.30;;
815;SDS011;25928;51.062;13.752;2022-10-13T07:46:22;14.57;;;10.60;;
815;SDS011;25928;51.062;13.752;2022-10-13T07:48:50;16.43;;;11.47;;
815;SDS011;25928;51.062;13.752;2022-10-13T07:51:17;21.00;;;12.37;;
815;SDS011;25928;51.062;13.752;2022-10-13T07:53:43;16.40;;;12.07;;
815;SDS011;25928;51.062;13.752;2022-10-13T07:56:11;16.60;;;11.50;;
815;SDS011;25928;51.062;13.752;2022-10-13T07:58:38;16.17;;;11.90;;
815;SDS011;25928;51.062;13.752;2022-10-13T08:01:05;16.63;;;11.33;;
815;SDS011;25928;51.062;13.752;2022-10-13T08:03:31;17.23;;;11.10;;
815;SDS011;25928;51.062;13.752;2022-10-13T08:05:57;16.77;;;10.83;;
815;SDS011;25928;51.062;13.752;2022-10-13T08:08:24;15.73;;;11.47;;
815;SDS011;25928;51.062;13.752;2022-10-13T08:10:50;14.60;;;11.63;;
815;SDS011;25928;51.062;13.752;2022-10-13T08:13:16;17.30;;;10.70;;
815;SDS011;25928;51.062;13.752;2022-10-13T08:15:42;14.17;;;11.67;;
815;SDS011;25928;51.062;13.752;2022-10-13T08:18:11;15.90;;;11.47;;
815;SDS011;25928;51.062;13.752;2022-10-13T08:20:38;14.77;;;11.27;;
815;SDS011;25928;51.062;13.752;2022-10-13T08:23:05;14.50;;;10.90;;
815;SDS011;25928;51.062;13.752;2022-10-13T08:25:38;13.77;;;10.53;;
815;SDS011;25928;51.062;13.752;2022-10-13T08:28:05;16.17;;;11.40;;
815;SDS011;25928;51.062;13.752;2022-10-13T08:30:39;15.83;;;11.37;;
815;SDS011;25928;51.062;13.752;2022-10-13T08:33:05;15.90;;;11.70;;
815;SDS011;25928;51.062;13.752;2022-10-13T08:35:30;18.97;;;12.57;;
815;SDS011;25928;51.062;13.752;2022-10-13T08:37:56;18.00;;;11.60;;
815;SDS011;25928;51.062;13.752;2022-10-13T08:40:21;14.60;;;10.77;;
815;SDS011;25928;51.062;13.752;2022-10-13T08:42:47;14.57;;;10.73;;
815;SDS011;25928;51.062;13.752;2022-10-13T08:45:20;15.80;;;10.97;;
815;SDS011;25928;51.062;13.752;2022-10-13T08:47:54;13.87;;;10.57;;
815;SDS011;25928;51.062;13.752;2022-10-13T08:50:24;15.00;;;10.93;;
815;SDS011;25928;51.062;13.752;2022-10-13T08:55:44;13.90;;;11.60;;
815;SDS011;25928;51.062;13.752;2022-10-13T08:58:32;12.87;;;10.83;;
815;SDS011;25928;51.062;13.752;2022-10-13T09:03:52;14.47;;;11.60;;
815;SDS011;25928;51.062;13.752;2022-10-13T09:09:09;14.50;;;10.70;;
815;SDS011;25928;51.062;13.752;2022-10-13T09:11:37;17.80;;;11.27;;
815;SDS011;25928;51.062;13.752;2022-10-13T09:14:09;13.27;;;10.73;;
815;SDS011;25928;51.062;13.752;2022-10-13T09:16:41;12.93;;;11.53;;
815;SDS011;25928;51.062;13.752;2022-10-13T09:19:27;14.87;;;10.60;;
815;SDS011;25928;51.062;13.752;2022-10-13T09:21:55;17.70;;;11.00;;
815;SDS011;25928;51.062;13.752;2022-10-13T09:24:23;11.97;;;10.33;;
815;SDS011;25928;51.062;13.752;2022-10-13T09:26:51;13.97;;;11.67;;
815;SDS011;25928;51.062;13.752;2022-10-13T09:29:28;17.60;;;12.00;;
815;SDS011;25928;51.062;13.752;2022-10-13T09:34:44;11.03;;;9.93;;
815;SDS011;25928;51.062;13.752;2022-10-13T09:37:23;13.83;;;10.63;;
815;SDS011;25928;51.062;13.752;2022-10-13T09:42:49;14.40;;;10.50;;
815;SDS011;25928;51.062;13.752;2022-10-13T09:45:17;18.93;;;11.57;;
815;SDS011;25928;51.062;13.752;2022-10-13T09:48:00;13.93;;;11.23;;
815;SDS011;25928;51.062;13.752;2022-10-13T09:50:30;18.97;;;11.80;;
815;SDS011;25928;51.062;13.752;2022-10-13T09:53:08;13.60;;;10.77;;
815;SDS011;25928;51.062;13.752;2022-10-13T09:58:54;13.03;;;10.20;;
815;SDS011;25928;51.062;13.752;2022-10-13T10:01:46;14.03;;;11.20;;
815;SDS011;25928;51.062;13.752;2022-10-13T10:04:19;16.07;;;11.63;;
815;SDS011;25928;51.062;13.752;2022-10-13T10:06:48;15.90;;;11.47;;
815;SDS011;25928;51.062;13.752;2022-10-13T10:11:52;15.10;;;11.30;;
815;SDS011;25928;51.062;13.752;2022-10-13T10:14:23;14.50;;;11.43;;
815;SDS011;25928;51.062;13.752;2022-10-13T10:17:37;14.80;;;11.03;;
815;SDS011;25928;51.062;13.752;2022-10-13T10:28:03;14.43;;;12.00;;
815;SDS011;25928;51.062;13.752;2022-10-13T10:30:34;14.67;;;10.93;;
815;SDS011;25928;51.062;13.752;2022-10-13T10:33:09;12.53;;;10.47;;
815;SDS011;25928;51.062;13.752;2022-10-13T10:35:42;15.00;;;10.90;;
815;SDS011;25928;51.062;13.752;2022-10-13T10:44:12;12.97;;;11.03;;
815;SDS011;25928;51.062;13.752;2022-10-13T10:46:41;16.37;;;11.60;;
815;SDS011;25928;51.062;13.752;2022-10-13T10:49:14;12.60;;;11.30;;
815;SDS011;25928;51.062;13.752;2022-10-13T10:51:43;15.40;;;12.43;;
815;SDS011;25928;51.062;13.752;2022-10-13T10:57:13;14.03;;;10.20;;
815;SDS011;25928;51.062;13.752;2022-10-13T11:05:22;17.80;;;10.90;;
815;SDS011;25928;51.062;13.752;2022-10-13T11:10:17;11.73;;;9.97;;
815;SDS011;25928;51.062;13.752;2022-10-13T11:17:48;13.63;;;10.17;;
815;SDS011;25928;51.062;13.752;2022-10-13T11:30:47;11.30;;;9.67;;
815;SDS011;25928;51.062;13.752;2022-10-13T11:38:58;13.83;;;9.83;;
815;SDS011;25928;51.062;13.752;2022-10-13T11:41:46;12.00;;;9.40;;
815;SDS011;25928;51.062;13.752;2022-10-13T11:44:44;12.70;;;10.00;;
815;SDS011;25928;51.062;13.752;2022-10-13T11:47:14;14.73;;;9.03;;
815;SDS011;25928;51.062;13.752;2022-10-13T11:53:03;13.70;;;9.40;;
815;SDS011;25928;51.062;13.752;2022-10-13T11:55:41;15.47;;;8.97;;
815;SDS011;25928;51.062;13.752;2022-10-13T11:58:22;13.40;;;9.37;;
815;SDS011;25928;51.062;13.752;2022-10-13T12:00:53;12.70;;;9.70;;
815;SDS011;25928;51.062;13.752;2022-10-13T12:03:24;11.67;;;9.20;;
815;SDS011;25928;51.062;13.752;2022-10-13T12:05:52;10.63;;;8.80;;
815;SDS011;25928;51.062;13.752;2022-10-13T12:08:20;12.30;;;8.67;;
815;SDS011;25928;51.062;13.752;2022-10-13T12:10:50;10.00;;;8.20;;
815;SDS011;25928;51.062;13.752;2022-10-13T12:13:22;9.00;;;7.70;;
815;SDS011;25928;51.062;13.752;2022-10-13T12:15:55;10.90;;;8.40;;
815;SDS011;25928;51.062;13.752;2022-10-13T12:18:34;10.20;;;8.43;;
815;SDS011;25928;51.062;13.752;2022-10-13T12:21:07;11.03;;;9.20;;
815;SDS011;25928;51.062;13.752;2022-10-13T12:23:37;13.00;;;8.80;;
815;SDS011;25928;51.062;13.752;2022-10-13T12:26:04;11.97;;;8.60;;
815;SDS011;25928;51.062;13.752;2022-10-13T12:28:42;8.87;;;7.87;;
815;SDS011;25928;51.062;13.752;2022-10-13T12:31:24;9.57;;;8.60;;
815;SDS011;25928;51.062;13.752;2022-10-13T12:36:25;10.43;;;8.67;;
815;SDS011;25928;51.062;13.752;2022-10-13T12:38:57;10.77;;;8.50;;
815;SDS011;25928;51.062;13.752;2022-10-13T12:41:32;11.53;;;8.40;;
815;SDS011;25928;51.062;13.752;2022-10-13T12:44:00;9.80;;;7.57;;
815;SDS011;25928;51.062;13.752;2022-10-13T12:46:34;10.27;;;7.40;;
815;SDS011;25928;51.062;13.752;2022-10-13T12:49:06;14.10;;;8.80;;
815;SDS011;25928;51.062;13.752;2022-10-13T12:51:36;10.93;;;8.40;;
815;SDS011;25928;51.062;13.752;2022-10-13T12:54:07;11.83;;;7.87;;
815;SDS011;25928;51.062;13.752;2022-10-13T12:56:40;9.73;;;8.40;;
815;SDS011;25928;51.062;13.752;2022-10-13T12:59:12;11.23;;;8.10;;
815;SDS011;25928;51.062;13.752;2022-10-13T13:01:42;16.53;;;9.27;;
815;SDS011;25928;51.062;13.752;2022-10-13T13:07:05;13.50;;;8.20;;
815;SDS011;25928;51.062;13.752;2022-10-13T13:10:12;10.60;;;7.80;;
815;SDS011;25928;51.062;13.752;2022-10-13T13:12:40;10.10;;;8.80;;
815;SDS011;25928;51.062;13.752;2022-10-13T13:15:16;8.67;;;7.10;;
815;SDS011;25928;51.062;13.752;2022-10-13T13:17:48;11.40;;;9.03;;
815;SDS011;25928;51.062;13.752;2022-10-13T13:20:33;11.80;;;8.87;;
815;SDS011;25928;51.062;13.752;2022-10-13T13:23:01;9.13;;;8.20;;
815;SDS011;25928;51.062;13.752;2022-10-13T13:25:27;10.23;;;7.63;;
815;SDS011;25928;51.062;13.752;2022-10-13T13:27:52;8.90;;;7.70;;
815;SDS011;25928;51.062;13.752;2022-10-13T13:30:19;13.00;;;9.80;;
815;SDS011;25928;51.062;13.752;2022-10-13T13:32:46;12.10;;;7.00;;
815;SDS011;25928;51.062;13.752;2022-10-13T13:35:13;7.43;;;6.37;;
815;SDS011;25928;51.062;13.752;2022-10-13T13:37:45;8.37;;;6.33;;
815;SDS011;25928;51.062;13.752;2022-10-13T13:40:15;7.83;;;6.30;;
815;SDS011;25928;51.062;13.752;2022-10-13T13:42:43;10.23;;;6.30;;
815;SDS011;25928;51.062;13.752;2022-10-13T13:45:12;8.63;;;6.70;;
815;SDS011;25928;51.062;13.752;2022-10-13T13:47:38;11.63;;;6.40;;
815;SDS011;25928;51.062;13.752;2022-10-13T13:50:08;11.20;;;6.50;;
815;SDS011;25928;51.062;13.752;2022-10-13T13:52:46;12.43;;;7.03;;
815;SDS011;25928;51.062;13.752;2022-10-13T13:55:12;8.13;;;6.90;;
815;SDS011;25928;51.062;13.752;2022-10-13T13:57:38;8.00;;;5.90;;
815;SDS011;25928;51.062;13.752;2022-10-13T14:00:04;9.03;;;5.80;;
815;SDS011;25928;51.062;13.752;2022-10-13T14:02:30;12.63;;;8.70;;
815;SDS011;25928;51.062;13.752;2022-10-13T14:04:55;10.20;;;8.00;;
815;SDS011;25928;51.062;13.752;2022-10-13T14:07:21;14.07;;;10.70;;
815;SDS011;25928;51.062;13.752;2022-10-13T14:09:47;7.60;;;6.50;;
815;SDS011;25928;51.062;13.752;2022-10-13T14:12:12;7.33;;;6.63;;
815;SDS011;25928;51.062;13.752;2022-10-13T14:14:38;10.90;;;8.17;;
815;SDS011;25928;51.062;13.752;2022-10-13T14:17:04;15.03;;;10.97;;
815;SDS011;25928;51.062;13.752;2022-10-13T14:19:30;15.67;;;10.00;;
815;SDS011;25928;51.062;13.752;2022-10-13T14:21:56;11.10;;;7.67;;
815;SDS011;25928;51.062;13.752;2022-10-13T14:24:22;13.50;;;7.90;;
815;SDS011;25928;51.062;13.752;2022-10-13T14:26:48;13.53;;;9.27;;
815;SDS011;25928;51.062;13.752;2022-10-13T14:29:14;10.17;;;8.93;;
815;SDS011;25928;51.062;13.752;2022-10-13T14:31:40;9.50;;;7.00;;
815;SDS011;25928;51.062;13.752;2022-10-13T14:34:06;11.37;;;9.30;;
815;SDS011;25928;51.062;13.752;2022-10-13T14:36:32;10.37;;;8.40;;
815;SDS011;25928;51.062;13.752;2022-10-13T14:38:57;12.73;;;8.57;;
815;SDS011;25928;51.062;13.752;2022-10-13T14:41:23;12.73;;;9.30;;
815;SDS011;25928;51.062;13.752;2022-10-13T14:43:55;12.17;;;9.30;;
815;SDS011;25928;51.062;13.752;2022-10-13T14:46:21;8.40;;;7.30;;
815;SDS011;25928;51.062;13.752;2022-10-13T14:48:47;13.47;;;9.03;;
815;SDS011;25928;51.062;13.752;2022-10-13T14:51:13;13.57;;;8.57;;
815;SDS011;25928;51.062;13.752;2022-10-13T14:53:41;14.80;;;8.73;;
815;SDS011;25928;51.062;13.752;2022-10-13T14:56:13;17.13;;;11.17;;
815;SDS011;25928;51.062;13.752;2022-10-13T14:58:41;11.10;;;8.80;;
815;SDS011;25928;51.062;13.752;2022-10-13T15:01:07;13.33;;;8.97;;
815;SDS011;25928;51.062;13.752;2022-10-13T15:03:33;14.20;;;8.37;;
815;SDS011;25928;51.062;13.752;2022-10-13T15:05:58;24.60;;;18.77;;
815;SDS011;25928;51.062;13.752;2022-10-13T15:08:24;16.57;;;12.20;;
815;SDS011;25928;51.062;13.752;2022-10-13T15:10:59;16.50;;;12.77;;
815;SDS011;25928;51.062;13.752;2022-10-13T15:13:25;13.73;;;9.20;;
815;SDS011;25928;51.062;13.752;2022-10-13T15:15:51;12.50;;;10.83;;
815;SDS011;25928;51.062;13.752;2022-10-13T15:18:16;14.83;;;9.70;;
815;SDS011;25928;51.062;13.752;2022-10-13T15:20:45;10.07;;;8.23;;
815;SDS011;25928;51.062;13.752;2022-10-13T15:23:12;13.80;;;8.40;;
815;SDS011;25928;51.062;13.752;2022-10-13T15:25:39;10.07;;;7.83;;
815;SDS011;25928;51.062;13.752;2022-10-13T15:28:13;8.97;;;7.87;;
815;SDS011;25928;51.062;13.752;2022-10-13T15:30:39;11.53;;;7.63;;
815;SDS011;25928;51.062;13.752;2022-10-13T15:33:05;10.37;;;7.60;;
815;SDS011;25928;51.062;13.752;2022-10-13T15:35:30;11.93;;;8.67;;
815;SDS011;25928;51.062;13.752;2022-10-13T15:37:56;14.90;;;8.60;;
815;SDS011;25928;51.062;13.752;2022-10-13T15:40:22;11.50;;;8.23;;
815;SDS011;25928;51.062;13.752;2022-10-13T15:42:48;12.77;;;8.97;;
815;SDS011;25928;51.062;13.752;2022-10-13T15:45:14;11.20;;;9.03;;
815;SDS011;25928;51.062;13.752;2022-10-13T15:47:39;13.20;;;9.10;;
815;SDS011;25928;51.062;13.752;2022-10-13T15:50:05;9.10;;;8.13;;
815;SDS011;25928;51.062;13.752;2022-10-13T15:52:35;12.10;;;8.10;;
815;SDS011;25928;51.062;13.752;2022-10-13T15:55:04;11.03;;;7.90;;
815;SDS011;25928;51.062;13.752;2022-10-13T15:57:31;13.50;;;8.70;;
815;SDS011;25928;51.062;13.752;2022-10-13T15:59:56;16.13;;;9.03;;
815;SDS011;25928;51.062;13.752;2022-10-13T16:02:22;12.87;;;9.40;;
815;SDS011;25928;51.062;13.752;2022-10-13T16:04:48;13.20;;;9.07;;
815;SDS011;25928;51.062;13.752;2022-10-13T16:07:14;13.20;;;9.37;;
815;SDS011;25928;51.062;13.752;2022-10-13T16:09:39;15.70;;;9.73;;
815;SDS011;25928;51.062;13.752;2022-10-13T16:12:05;14.33;;;9.90;;
815;SDS011;25928;51.062;13.752;2022-10-13T16:14:31;11.23;;;9.97;;
815;SDS011;25928;51.062;13.752;2022-10-13T16:16:56;13.70;;;11.43;;
815;SDS011;25928;51.062;13.752;2022-10-13T16:19:22;14.00;;;10.40;;
815;SDS011;25928;51.062;13.752;2022-10-13T16:21:47;12.90;;;10.00;;
815;SDS011;25928;51.062;13.752;2022-10-13T16:24:13;17.00;;;10.10;;
815;SDS011;25928;51.062;13.752;2022-10-13T16:26:38;13.50;;;11.00;;
815;SDS011;25928;51.062;13.752;2022-10-13T16:29:04;15.30;;;10.73;;
815;SDS011;25928;51.062;13.752;2022-10-13T16:31:29;13.73;;;11.20;;